Airport View

Enter AWOS ICAO identifier for current METAR.

ex. KFNL

PASD 191856Z 03006KT 10SM FEW019 FEW045 SCT100 11/08 A3023

19 Jun 2019 19:41

Frequency: 134.85

Other Area AWOS: PAOU - PAVC - PACD - PAJC

TAF PASD 191742Z 1918/2018 VRB04KT P6SM FEW020 SCT040 SCT100 AMD LTD TO CLD VIS AND WIND